createdAt,value
2019-03-28T00:02:00.170Z,99022.20
2019-03-28T00:04:33.947Z,99018.34
2019-03-28T00:07:08.853Z,99021.08
2019-03-28T00:09:42.840Z,99025.26
2019-03-28T00:12:16.871Z,99028.84
2019-03-28T00:14:50.441Z,99032.19
2019-03-28T00:17:23.931Z,99032.33
2019-03-28T00:19:57.497Z,99037.01
2019-03-28T00:22:31.013Z,99034.59
2019-03-28T00:25:04.476Z,99039.13
2019-03-28T00:27:38.266Z,99042.02
2019-03-28T00:30:12.568Z,99032.51
2019-03-28T00:32:46.283Z,99033.80
2019-03-28T00:35:25.717Z,99036.23
2019-03-28T00:38:01.450Z,99039.78
2019-03-28T00:40:34.944Z,99037.30
2019-03-28T00:43:08.703Z,99040.02
2019-03-28T00:45:44.470Z,99040.11
2019-03-28T00:48:16.931Z,99035.38
2019-03-28T00:50:50.529Z,99044.38
2019-03-28T00:53:24.247Z,99042.34
2019-03-28T00:55:58.116Z,99041.61
2019-03-28T00:58:31.708Z,99044.38
2019-03-28T01:01:05.506Z,99036.73
2019-03-28T01:03:39.356Z,99035.97
2019-03-28T01:06:13.009Z,99034.59
2019-03-28T01:08:46.690Z,99041.08
2019-03-28T01:11:22.552Z,99040.39
2019-03-28T01:13:57.649Z,99035.79
2019-03-28T01:16:31.199Z,99034.61
2019-03-28T01:19:04.514Z,99041.03
2019-03-28T01:21:40.086Z,99043.16
2019-03-28T01:24:15.708Z,99038.94
2019-03-28T01:27:08.999Z,99046.51
2019-03-28T01:29:43.092Z,99047.81
2019-03-28T01:32:17.215Z,99048.20
2019-03-28T01:34:51.166Z,99043.63
2019-03-28T01:37:25.081Z,99044.28
2019-03-28T01:40:00.853Z,99046.95
2019-03-28T01:42:34.840Z,99041.73
2019-03-28T01:45:11.058Z,99048.31
2019-03-28T01:47:45.333Z,99044.53
2019-03-28T01:50:19.546Z,99039.23
2019-03-28T01:52:53.283Z,99045.94
2019-03-28T01:55:27.363Z,99043.16
2019-03-28T01:58:03.060Z,99043.61
2019-03-28T02:00:38.608Z,99043.55
2019-03-28T02:03:16.475Z,99047.98
2019-03-28T02:05:50.478Z,99039.95
2019-03-28T02:08:25.109Z,99042.22
2019-03-28T02:10:58.966Z,99034.95
2019-03-28T02:13:32.722Z,99036.01
2019-03-28T02:16:06.935Z,99024.52
2019-03-28T02:18:41.082Z,99024.52
2019-03-28T02:21:17.111Z,99027.41
2019-03-28T02:23:50.820Z,99023.30
2019-03-28T02:26:24.538Z,99019.05
2019-03-28T02:28:59.569Z,99021.80
2019-03-28T02:31:33.263Z,99020.19
2019-03-28T02:34:08.397Z,99013.89
2019-03-28T02:36:42.333Z,99016.83
2019-03-28T02:39:16.879Z,99005.56
2019-03-28T02:41:50.714Z,99016.16
2019-03-28T02:44:24.356Z,99003.27
2019-03-28T02:46:58.138Z,99009.77
2019-03-28T02:49:31.859Z,99002.50
2019-03-28T02:52:05.596Z,99002.91
2019-03-28T02:54:40.972Z,99008.93
2019-03-28T02:57:15.090Z,98998.71
2019-03-28T02:59:48.746Z,99005.55
2019-03-28T03:02:22.613Z,98996.20
2019-03-28T03:04:56.943Z,98990.48
2019-03-28T03:07:32.307Z,98996.00
2019-03-28T03:10:09.572Z,98998.68
2019-03-28T03:12:43.357Z,99003.60
2019-03-28T03:15:17.145Z,99009.03
2019-03-28T03:17:52.132Z,98998.98
2019-03-28T03:20:27.766Z,99000.92
2019-03-28T03:23:01.504Z,98988.94
2019-03-28T03:25:35.797Z,98992.73
2019-03-28T03:28:09.899Z,98988.11
2019-03-28T03:30:43.949Z,98978.33
2019-03-28T03:33:17.737Z,98974.26
2019-03-28T03:35:53.502Z,98970.18
2019-03-28T03:38:27.499Z,98960.93
2019-03-28T03:41:01.704Z,98967.69
2019-03-28T03:43:35.628Z,98969.64
2019-03-28T03:46:09.687Z,98962.56
2019-03-28T03:48:43.852Z,98960.94
2019-03-28T03:51:17.368Z,98955.77
2019-03-28T03:53:52.759Z,98951.91
2019-03-28T03:56:26.604Z,98938.11
2019-03-28T03:59:00.665Z,98945.44
2019-03-28T04:01:36.683Z,98942.70
2019-03-28T04:04:11.635Z,98937.29
2019-03-28T04:06:51.799Z,98939.36
2019-03-28T04:09:26.054Z,98933.08
2019-03-28T04:12:03.245Z,98943.67
2019-03-28T04:14:36.979Z,98932.64
2019-03-28T04:17:12.345Z,98923.30
2019-03-28T04:19:46.268Z,98923.17
2019-03-28T04:22:20.646Z,98904.09
2019-03-28T04:24:54.668Z,98905.27
2019-03-28T04:27:28.745Z,98903.27
2019-03-28T04:30:02.644Z,98900.55
2019-03-28T04:32:36.485Z,98902.07
2019-03-28T04:35:10.443Z,98892.26
2019-03-28T04:37:44.312Z,98887.32
2019-03-28T04:40:18.015Z,98896.87
2019-03-28T04:42:52.591Z,98883.17
2019-03-28T04:45:27.426Z,98882.30
2019-03-28T04:48:01.784Z,98874.30
2019-03-28T04:50:35.701Z,98859.20
2019-03-28T04:53:10.047Z,98862.70
2019-03-28T04:55:44.000Z,98867.09
2019-03-28T04:58:21.335Z,98865.80
2019-03-28T05:00:53.223Z,98865.03
2019-03-28T05:03:26.902Z,98863.48
2019-03-28T05:06:02.205Z,98863.84
2019-03-28T05:08:35.790Z,98851.56
2019-03-28T05:11:09.465Z,98845.89
2019-03-28T05:13:46.619Z,98857.99
2019-03-28T05:16:20.431Z,98860.49
2019-03-28T05:18:54.158Z,98859.48
2019-03-28T05:21:28.325Z,98848.91
2019-03-28T05:24:02.177Z,98840.07
2019-03-28T05:26:36.467Z,98837.29
2019-03-28T05:29:10.946Z,98835.66
2019-03-28T05:31:46.410Z,98834.89
2019-03-28T05:34:20.233Z,98827.67
2019-03-28T05:36:53.922Z,98830.81
2019-03-28T05:39:27.675Z,98830.58
2019-03-28T05:42:01.698Z,98833.02
2019-03-28T05:44:37.537Z,98824.94
2019-03-28T05:47:11.502Z,98804.64
2019-03-28T05:49:47.188Z,98821.49
2019-03-28T05:52:21.022Z,98813.45
2019-03-28T05:54:57.572Z,98818.27
2019-03-28T05:57:31.239Z,98826.00
2019-03-28T06:00:06.038Z,98811.60
2019-03-28T06:02:39.786Z,98815.05
2019-03-28T06:05:14.301Z,98814.78
2019-03-28T06:07:48.254Z,98803.11
2019-03-28T06:10:22.567Z,98795.44
2019-03-28T06:12:56.859Z,98798.45
2019-03-28T06:15:31.823Z,98791.63
2019-03-28T06:18:05.833Z,98799.55
2019-03-28T06:20:39.655Z,98799.59
2019-03-28T06:23:13.548Z,98809.44
2019-03-28T06:25:47.324Z,98793.17
2019-03-28T06:28:20.888Z,98787.78
2019-03-28T06:30:55.944Z,98797.33
2019-03-28T06:33:30.352Z,98794.98
2019-03-28T06:36:04.132Z,98797.72
2019-03-28T06:38:38.510Z,98788.91
2019-03-28T06:41:12.343Z,98790.75
2019-03-28T06:43:46.212Z,98789.76
2019-03-28T06:46:19.971Z,98786.66
2019-03-28T06:48:55.372Z,98800.58
2019-03-28T06:51:31.334Z,98790.02
2019-03-28T06:54:15.007Z,98784.45
2019-03-28T06:56:48.825Z,98772.28
2019-03-28T06:59:22.518Z,98774.34
2019-03-28T07:01:56.580Z,98768.88
2019-03-28T07:04:30.912Z,98772.63
2019-03-28T07:07:05.057Z,98777.28
2019-03-28T07:09:39.961Z,98777.21
2019-03-28T07:12:13.522Z,98777.56
2019-03-28T07:14:47.289Z,98772.17
2019-03-28T07:17:22.826Z,98781.84
2019-03-28T07:19:56.917Z,98775.05
2019-03-28T07:22:31.070Z,98773.85
2019-03-28T07:25:04.750Z,98767.28
2019-03-28T07:27:38.475Z,98767.63
2019-03-28T07:33:06.705Z,98757.66
2019-03-28T07:35:42.123Z,98763.05
2019-03-28T07:38:16.773Z,98761.77
2019-03-28T07:40:51.017Z,98760.66
2019-03-28T07:43:25.281Z,98757.61
2019-03-28T07:45:59.429Z,98772.32
2019-03-28T07:48:33.277Z,98771.27
2019-03-28T07:51:06.618Z,98770.40
2019-03-28T07:53:40.574Z,98777.11
2019-03-28T07:56:14.818Z,98771.86
2019-03-28T07:58:49.013Z,98764.16
2019-03-28T08:01:23.360Z,98761.91
2019-03-28T08:03:57.802Z,98762.56
2019-03-28T08:06:32.027Z,98769.44
2019-03-28T08:09:09.891Z,98767.41
2019-03-28T08:11:44.244Z,98766.59
2019-03-28T08:14:20.941Z,98772.77
2019-03-28T08:16:56.490Z,98767.41
2019-03-28T08:19:32.771Z,98759.58
2019-03-28T08:22:08.758Z,98766.05
2019-03-28T08:24:44.153Z,98766.66
2019-03-28T08:27:19.645Z,98768.45
2019-03-28T08:29:57.688Z,98766.73
2019-03-28T08:32:30.311Z,98765.64
2019-03-28T08:35:04.101Z,98759.44
2019-03-28T08:37:39.256Z,98761.02
2019-03-28T08:40:15.494Z,98755.58
2019-03-28T08:42:50.863Z,98756.13
2019-03-28T08:45:25.064Z,98762.23
2019-03-28T08:48:01.067Z,98759.73
2019-03-28T08:50:34.854Z,98759.20
2019-03-28T08:53:08.781Z,98760.05
2019-03-28T08:55:43.486Z,98756.63
2019-03-28T08:58:18.820Z,98756.53
2019-03-28T09:00:54.060Z,98755.98
2019-03-28T09:03:29.873Z,98757.64
2019-03-28T09:06:05.574Z,98755.47
2019-03-28T09:08:39.629Z,98769.02
2019-03-28T09:11:14.313Z,98766.06
2019-03-28T09:13:49.092Z,98761.21
2019-03-28T09:16:24.434Z,98769.92
2019-03-28T09:19:00.160Z,98766.44
2019-03-28T09:21:35.655Z,98761.80
2019-03-28T09:24:09.550Z,98765.08
2019-03-28T09:26:44.156Z,98766.71
2019-03-28T09:29:18.962Z,98763.73
2019-03-28T09:31:53.044Z,98758.31
2019-03-28T09:34:28.463Z,98754.80
2019-03-28T09:37:03.367Z,98760.77
2019-03-28T09:39:38.706Z,98764.27
2019-03-28T09:42:12.399Z,98757.76
2019-03-28T09:44:46.971Z,98768.06
2019-03-28T09:47:21.410Z,98765.64
2019-03-28T09:50:03.066Z,98766.72
2019-03-28T09:52:37.473Z,98764.77
2019-03-28T09:55:11.813Z,98772.66
2019-03-28T09:57:46.551Z,98774.54
2019-03-28T10:00:21.580Z,98784.83
2019-03-28T10:02:56.503Z,98786.16
2019-03-28T10:05:32.109Z,98788.55
2019-03-28T10:08:07.294Z,98794.30
2019-03-28T10:10:42.182Z,98799.70
2019-03-28T10:13:17.260Z,98795.58
2019-03-28T10:18:46.824Z,98803.44
2019-03-28T10:21:25.442Z,98804.22
2019-03-28T10:24:00.544Z,98805.61
2019-03-28T10:26:35.682Z,98808.93
2019-03-28T10:29:10.494Z,98808.38
2019-03-28T10:31:47.052Z,98813.48
2019-03-28T10:34:25.548Z,98812.07
2019-03-28T10:37:01.433Z,98819.91
2019-03-28T10:39:36.140Z,98825.30
2019-03-28T10:42:17.700Z,98819.55
2019-03-28T10:44:53.652Z,98812.81
2019-03-28T10:47:30.345Z,98822.30
2019-03-28T10:50:07.280Z,98818.92
2019-03-28T10:52:43.439Z,98819.24
2019-03-28T10:55:21.711Z,98825.99
2019-03-28T10:57:59.217Z,98830.03
2019-03-28T11:00:36.958Z,98833.25
2019-03-28T11:03:12.568Z,98835.42
2019-03-28T11:05:50.494Z,98837.29
2019-03-28T11:08:28.707Z,98842.17
2019-03-28T11:11:02.357Z,98842.65
2019-03-28T11:13:37.649Z,98849.98
2019-03-28T11:16:15.230Z,98858.74
2019-03-28T11:18:52.612Z,98857.32
2019-03-28T11:21:28.096Z,98856.94
2019-03-28T11:24:05.251Z,98864.52
2019-03-28T11:26:42.769Z,98868.05
2019-03-28T11:29:18.737Z,98874.31
2019-03-28T11:31:55.094Z,98881.05
2019-03-28T11:34:30.506Z,98880.43
2019-03-28T11:37:11.347Z,98895.85
2019-03-28T11:39:44.594Z,98888.67
2019-03-28T11:42:23.661Z,98892.00
2019-03-28T11:44:59.553Z,98890.64
2019-03-28T11:47:41.140Z,98899.38
2019-03-28T11:50:18.553Z,98898.27
2019-03-28T11:53:04.515Z,98906.31
2019-03-28T11:55:48.528Z,98906.88
2019-03-28T11:58:22.003Z,98913.93
2019-03-28T12:00:57.503Z,98906.92
2019-03-28T12:03:39.611Z,98905.84
2019-03-28T12:06:15.121Z,98902.80
2019-03-28T12:08:55.769Z,98908.88
2019-03-28T12:11:29.241Z,98906.09
2019-03-28T12:14:06.205Z,98905.95
2019-03-28T12:16:48.310Z,98907.16
2019-03-28T12:19:24.981Z,98908.12
2019-03-28T12:22:05.278Z,98911.25
2019-03-28T12:24:42.485Z,98913.63
2019-03-28T12:27:20.225Z,98914.92
2019-03-28T12:30:01.109Z,98913.34
2019-03-28T12:32:37.239Z,98914.73
2019-03-28T12:41:02.964Z,98917.48
2019-03-28T12:43:39.529Z,98913.42
2019-03-28T12:46:18.095Z,98920.55
2019-03-28T12:48:53.616Z,98916.44
2019-03-28T12:51:31.167Z,98908.70
2019-03-28T12:54:09.190Z,98907.92
2019-03-28T12:56:50.107Z,98904.77
2019-03-28T12:59:27.727Z,98908.42
2019-03-28T13:02:05.805Z,98905.70
2019-03-28T13:04:41.484Z,98904.11
2019-03-28T13:07:17.034Z,98908.53
2019-03-28T13:09:52.621Z,98908.71
2019-03-28T13:12:34.343Z,98911.25
2019-03-28T13:15:10.898Z,98923.55
2019-03-28T13:17:46.552Z,98915.58
2019-03-28T13:20:27.312Z,98911.64
2019-03-28T13:23:04.632Z,98915.22
2019-03-28T13:25:42.569Z,98911.77
2019-03-28T13:28:23.292Z,98920.33
2019-03-28T13:30:59.686Z,98915.05
2019-03-28T13:33:37.441Z,98910.16
2019-03-28T13:36:13.021Z,98912.63
2019-03-28T13:38:53.191Z,98911.87
2019-03-28T13:41:28.541Z,98912.05
2019-03-28T13:44:03.824Z,98916.48
2019-03-28T13:46:42.075Z,98911.20
2019-03-28T13:49:18.366Z,98916.84
2019-03-28T13:51:58.808Z,98919.20
2019-03-28T13:54:35.088Z,98913.41
2019-03-28T13:57:10.792Z,98916.88
2019-03-28T13:59:47.377Z,98924.97
2019-03-28T14:02:22.419Z,98927.72
2019-03-28T14:04:59.018Z,98928.59
2019-03-28T14:07:35.819Z,98929.27
2019-03-28T14:10:13.455Z,98927.09
2019-03-28T14:12:47.884Z,98920.91
2019-03-28T14:15:25.336Z,98927.89
2019-03-28T14:18:01.545Z,98929.13
2019-03-28T14:20:36.835Z,98915.55
2019-03-28T14:23:10.920Z,98919.69
2019-03-28T14:25:46.667Z,98922.30
2019-03-28T14:28:22.687Z,98916.55
2019-03-28T14:31:00.678Z,98922.06
2019-03-28T14:33:34.436Z,98920.80
2019-03-28T14:36:08.949Z,98917.95
2019-03-28T14:38:43.611Z,98910.66
2019-03-28T14:41:18.094Z,98910.75
2019-03-28T14:43:53.389Z,98911.21
2019-03-28T14:46:29.604Z,98906.67
2019-03-28T14:49:05.572Z,98901.78
2019-03-28T14:51:40.010Z,98891.40
2019-03-28T14:54:15.675Z,98897.67
2019-03-28T14:56:51.482Z,98898.27
2019-03-28T14:59:32.381Z,98896.50
2019-03-28T15:02:03.905Z,98894.39
2019-03-28T15:04:39.459Z,98892.29
2019-03-28T15:07:13.784Z,98897.04
2019-03-28T15:09:49.954Z,98881.16
2019-03-28T15:12:29.120Z,98882.96
2019-03-28T15:15:03.619Z,98884.77
2019-03-28T15:17:38.172Z,98879.89
2019-03-28T15:20:12.634Z,98880.30
2019-03-28T15:22:47.092Z,98881.55
2019-03-28T15:25:23.064Z,98880.43
2019-03-28T15:27:57.166Z,98876.84
2019-03-28T15:30:31.483Z,98880.85
2019-03-28T15:33:05.968Z,98879.33
2019-03-28T15:35:39.567Z,98880.85
2019-03-28T15:38:15.443Z,98881.55
2019-03-28T15:40:49.780Z,98877.88
2019-03-28T15:43:26.422Z,98883.41
2019-03-28T15:46:01.006Z,98884.72
2019-03-28T15:48:35.666Z,98890.80
2019-03-28T15:51:12.188Z,98882.60
2019-03-28T15:53:46.975Z,98883.73
2019-03-28T15:56:23.314Z,98890.16
2019-03-28T15:58:59.093Z,98891.95
2019-03-28T16:01:33.612Z,98888.73
2019-03-28T16:04:11.772Z,98878.21
2019-03-28T16:06:47.724Z,98872.95
2019-03-28T16:09:23.725Z,98871.41
2019-03-28T16:12:02.831Z,98870.26
2019-03-28T16:14:34.380Z,98869.89
2019-03-28T16:17:08.780Z,98866.23
2019-03-28T16:19:45.163Z,98872.67
2019-03-28T16:22:22.369Z,98877.51
2019-03-28T16:24:55.094Z,98871.83
2019-03-28T16:27:29.591Z,98865.87
2019-03-28T16:30:04.045Z,98869.36
2019-03-28T16:32:38.064Z,98866.07
2019-03-28T16:35:12.080Z,98864.62
2019-03-28T16:37:46.199Z,98861.33
2019-03-28T16:40:20.475Z,98868.67
2019-03-28T16:42:55.676Z,98866.56
2019-03-28T16:45:30.084Z,98866.56
2019-03-28T16:48:04.709Z,98867.30
2019-03-28T16:50:38.832Z,98872.87
2019-03-28T16:53:14.914Z,98874.05
2019-03-28T16:55:49.321Z,98875.64
2019-03-28T16:58:23.176Z,98876.46
2019-03-28T17:00:57.006Z,98874.14
2019-03-28T17:03:31.105Z,98866.79
2019-03-28T17:06:07.688Z,98862.03
2019-03-28T17:08:43.945Z,98859.91
2019-03-28T17:11:18.570Z,98857.48
2019-03-28T17:13:54.746Z,98853.02
2019-03-28T17:16:29.682Z,98856.21
2019-03-28T17:19:03.547Z,98854.27
2019-03-28T17:21:38.024Z,98852.28
2019-03-28T17:24:11.836Z,98852.19
2019-03-28T17:26:47.393Z,98853.45
2019-03-28T17:29:23.469Z,98852.70
2019-03-28T17:31:59.632Z,98848.64
2019-03-28T17:34:37.135Z,98846.70
2019-03-28T17:37:10.977Z,98849.26
2019-03-28T17:39:46.140Z,98840.50
2019-03-28T17:42:19.738Z,98846.39
2019-03-28T17:44:53.467Z,98840.89
2019-03-28T17:47:27.112Z,98848.30
2019-03-28T17:50:02.307Z,98840.33
2019-03-28T17:52:35.837Z,98840.33
2019-03-28T17:55:10.439Z,98841.51
2019-03-28T17:57:45.816Z,98839.63
2019-03-28T18:00:19.993Z,98850.60
2019-03-28T18:02:53.986Z,98850.55
2019-03-28T18:05:27.736Z,98852.03
2019-03-28T18:08:03.610Z,98854.05
2019-03-28T18:10:38.483Z,98851.23
2019-03-28T18:13:13.573Z,98858.61
2019-03-28T18:15:48.740Z,98850.50
2019-03-28T18:18:26.267Z,98847.86
2019-03-28T18:21:00.582Z,98844.60
2019-03-28T18:23:34.798Z,98844.36
2019-03-28T18:26:09.554Z,98846.22
2019-03-28T18:28:45.731Z,98846.60
2019-03-28T18:31:19.563Z,98842.21
2019-03-28T18:33:58.329Z,98838.11
2019-03-28T18:36:34.224Z,98844.83
2019-03-28T18:39:08.872Z,98840.72
2019-03-28T18:41:42.580Z,98839.39
2019-03-28T18:44:17.461Z,98841.39
2019-03-28T18:46:52.771Z,98838.41
2019-03-28T18:49:28.705Z,98834.16
2019-03-28T18:52:07.218Z,98831.40
2019-03-28T18:54:40.320Z,98833.36
2019-03-28T18:57:14.845Z,98831.41
2019-03-28T18:59:49.807Z,98826.05
2019-03-28T19:02:23.614Z,98825.00
2019-03-28T19:04:57.473Z,98818.73
2019-03-28T19:07:31.135Z,98821.77
2019-03-28T19:10:05.713Z,98825.05
2019-03-28T19:12:41.089Z,98828.81
2019-03-28T19:15:15.810Z,98823.76
2019-03-28T19:17:49.953Z,98832.06
2019-03-28T19:20:25.469Z,98827.37
2019-03-28T19:22:59.113Z,98831.39
2019-03-28T19:25:35.340Z,98833.64
2019-03-28T19:28:11.435Z,98831.86
2019-03-28T19:30:45.451Z,98836.17
2019-03-28T19:33:19.279Z,98832.41
2019-03-28T19:35:55.857Z,98832.50
2019-03-28T19:38:30.464Z,98831.03
2019-03-28T19:41:04.470Z,98831.03
2019-03-28T19:43:40.133Z,98825.77
2019-03-28T19:46:13.901Z,98826.59
2019-03-28T19:48:47.649Z,98820.53
2019-03-28T19:51:21.215Z,98830.88
2019-03-28T19:53:55.316Z,98833.02
2019-03-28T19:56:29.127Z,98838.06
2019-03-28T19:59:02.740Z,98837.59
2019-03-28T20:01:37.563Z,98837.59
2019-03-28T20:04:11.487Z,98843.04
2019-03-28T20:06:45.029Z,98839.71
2019-03-28T20:09:18.540Z,98836.15
2019-03-28T20:11:52.123Z,98832.52
2019-03-28T20:14:25.980Z,98835.05
2019-03-28T20:16:59.873Z,98834.64
2019-03-28T20:19:33.558Z,98830.94
2019-03-28T20:22:07.078Z,98840.34
2019-03-28T20:24:41.756Z,98837.84
2019-03-28T20:27:15.549Z,98838.84
2019-03-28T20:29:49.309Z,98839.09
2019-03-28T20:32:22.941Z,98838.58
2019-03-28T20:34:56.554Z,98840.91
2019-03-28T20:37:30.194Z,98846.57
2019-03-28T20:40:03.807Z,98845.73
2019-03-28T20:42:37.402Z,98841.09
2019-03-28T20:45:12.681Z,98837.64
2019-03-28T20:47:46.423Z,98837.91
2019-03-28T20:50:20.425Z,98834.70
2019-03-28T20:52:54.310Z,98834.76
2019-03-28T20:55:27.986Z,98833.92
2019-03-28T20:58:02.816Z,98837.45
2019-03-28T21:00:48.056Z,98840.95
2019-03-28T21:03:22.961Z,98830.64
2019-03-28T21:05:56.450Z,98834.54
2019-03-28T21:08:30.338Z,98831.45
2019-03-28T21:11:04.124Z,98841.63
2019-03-28T21:13:38.114Z,98841.73
2019-03-28T21:16:12.135Z,98840.86
2019-03-28T21:18:45.463Z,98837.28
2019-03-28T21:21:19.010Z,98840.10
2019-03-28T21:23:52.726Z,98836.92
2019-03-28T21:26:26.352Z,98840.53
2019-03-28T21:28:59.884Z,98841.70
2019-03-28T21:31:33.627Z,98843.87
2019-03-28T21:34:07.745Z,98839.64
2019-03-28T21:36:42.763Z,98849.24
2019-03-28T21:39:17.107Z,98847.39
2019-03-28T21:41:50.594Z,98858.09
2019-03-28T21:44:24.197Z,98860.16
2019-03-28T21:46:58.767Z,98861.45
2019-03-28T21:49:32.686Z,98865.27
2019-03-28T21:52:07.477Z,98852.02
2019-03-28T21:54:41.802Z,98868.88
2019-03-28T21:57:15.968Z,98869.05
2019-03-28T21:59:49.643Z,98873.64
2019-03-28T22:02:23.109Z,98876.15
2019-03-28T22:04:56.585Z,98878.89
2019-03-28T22:07:30.214Z,98877.31
2019-03-28T22:10:04.226Z,98887.19
2019-03-28T22:12:37.757Z,98881.95
2019-03-28T22:15:11.964Z,98878.65
2019-03-28T22:17:47.257Z,98881.09
2019-03-28T22:20:20.766Z,98892.67
2019-03-28T22:22:55.117Z,98886.33
2019-03-28T22:25:30.401Z,98887.03
2019-03-28T22:28:04.535Z,98893.19
2019-03-28T22:30:38.980Z,98888.97
2019-03-28T22:33:13.557Z,98886.27
2019-03-28T22:35:47.547Z,98886.65
2019-03-28T22:38:21.190Z,98886.33
2019-03-28T22:40:54.991Z,98889.72
2019-03-28T22:43:30.012Z,98890.47
2019-03-28T22:46:05.559Z,98889.61
2019-03-28T22:48:39.909Z,98896.02
2019-03-28T22:51:13.595Z,98894.77
2019-03-28T22:53:47.207Z,98893.53
2019-03-28T22:56:21.747Z,98901.02
2019-03-28T22:58:55.455Z,98902.38
2019-03-28T23:01:29.445Z,98913.25
2019-03-28T23:04:03.259Z,98902.79
2019-03-28T23:06:38.091Z,98911.62
2019-03-28T23:09:13.184Z,98909.48
2019-03-28T23:11:54.676Z,98909.63
2019-03-28T23:14:28.707Z,98913.38
2019-03-28T23:17:02.387Z,98913.88
2019-03-28T23:19:36.283Z,98911.66
2019-03-28T23:22:10.118Z,98913.98
2019-03-28T23:24:44.181Z,98914.41
2019-03-28T23:27:18.658Z,98914.92
2019-03-28T23:29:52.732Z,98913.39
2019-03-28T23:32:26.583Z,98915.81
2019-03-28T23:35:00.924Z,98917.81
2019-03-28T23:37:35.072Z,98920.97
2019-03-28T23:40:10.209Z,98921.06
2019-03-28T23:42:44.556Z,98926.75
2019-03-28T23:45:19.159Z,98925.98
2019-03-28T23:47:55.176Z,98928.89
2019-03-28T23:50:29.541Z,98921.97
2019-03-28T23:53:05.536Z,98925.84
2019-03-28T23:55:39.474Z,98923.83
2019-03-28T23:58:13.311Z,98931.59
